CFG1414 EDDF-LPMA
Flight info
| Callsign | CFG1414 |
|---|---|
| Flight time | N/A |
| Altitude | 29000 |
| Route | ANEKI2L/18 ANEKI Y163 HERBI Y164 MOPAN DCT LUTIX/N0455F310 DCT BENOT DCT NEMOS DCT NINTU DCT MEBAK DCT REPSI DCT LERGA DCT MINSO DCT NARAK DCT AGN DCT LATEK DCT PPN DCT MIRPO DCT DGO DCT NEA DCT ARDID DCT GANSU DCT NARTA/N0452F330 DCT RAKUN |
| Aircraft | A321/M-SDE3FGHIRWY/LB1 |
Departure
| Time | 2026-04-15 15:07 |
|---|---|
| Airport | Frankfurt Main Airport (EDDF) |
Arrival
| Time | N/A |
|---|---|
| Airport | Cristiano Ronaldo International Airport (LPMA) |
| Time | Latitude | Longitude | Altitude | Speed | Heading |
|---|---|---|---|---|---|
| 2026-04-15 14:30 | 50.04697 | 8.57096 | 362 ft | 0 kts | 115° |
| 2026-04-15 14:55 | 50.04702 | 8.57082 | 358 ft | 3 kts | 115° |
| 2026-04-15 14:55 | 50.04710 | 8.57053 | 356 ft | 3 kts | 115° |
| 2026-04-15 14:55 | 50.04718 | 8.57026 | 359 ft | 3 kts | 126° |
| 2026-04-15 14:55 | 50.04731 | 8.57007 | 360 ft | 3 kts | 163° |
| 2026-04-15 14:56 | 50.04749 | 8.57004 | 361 ft | 3 kts | 199° |
| 2026-04-15 14:56 | 50.04760 | 8.57011 | 360 ft | 2 kts | 206° |
| 2026-04-15 14:56 | 50.04776 | 8.57023 | 360 ft | 2 kts | 206° |
| 2026-04-15 14:56 | 50.04780 | 8.57026 | 359 ft | 2 kts | 206° |
| 2026-04-15 14:59 | 50.04769 | 8.57017 | 361 ft | 4 kts | 206° |
| 2026-04-15 14:59 | 50.04729 | 8.56988 | 358 ft | 6 kts | 204° |
| 2026-04-15 14:59 | 50.04695 | 8.56965 | 360 ft | 4 kts | 204° |
| 2026-04-15 14:59 | 50.04673 | 8.56948 | 358 ft | 3 kts | 205° |
| 2026-04-15 15:00 | 50.04648 | 8.56931 | 362 ft | 10 kts | 201° |
| 2026-04-15 15:00 | 50.04564 | 8.56895 | 361 ft | 11 kts | 193° |
| 2026-04-15 15:00 | 50.04501 | 8.56870 | 359 ft | 8 kts | 194° |
| 2026-04-15 15:00 | 50.04444 | 8.56794 | 365 ft | 16 kts | 248° |
| 2026-04-15 15:01 | 50.04401 | 8.56617 | 361 ft | 17 kts | 250° |
| 2026-04-15 15:01 | 50.04360 | 8.56444 | 363 ft | 17 kts | 249° |
| 2026-04-15 15:01 | 50.04316 | 8.56261 | 357 ft | 18 kts | 250° |
| 2026-04-15 15:01 | 50.04272 | 8.56077 | 356 ft | 20 kts | 249° |
| 2026-04-15 15:02 | 50.04225 | 8.55882 | 360 ft | 19 kts | 250° |
| 2026-04-15 15:02 | 50.04181 | 8.55697 | 360 ft | 18 kts | 249° |
| 2026-04-15 15:02 | 50.04139 | 8.55522 | 359 ft | 17 kts | 250° |
| 2026-04-15 15:02 | 50.04097 | 8.55344 | 353 ft | 17 kts | 250° |
| 2026-04-15 15:03 | 50.04051 | 8.55153 | 360 ft | 26 kts | 249° |
| 2026-04-15 15:03 | 50.03977 | 8.54840 | 357 ft | 25 kts | 250° |
| 2026-04-15 15:03 | 50.03916 | 8.54588 | 350 ft | 24 kts | 249° |
| 2026-04-15 15:03 | 50.03860 | 8.54374 | 353 ft | 19 kts | 239° |
| 2026-04-15 15:04 | 50.03794 | 8.54201 | 347 ft | 18 kts | 249° |
| 2026-04-15 15:04 | 50.03752 | 8.54025 | 350 ft | 17 kts | 250° |
| 2026-04-15 15:04 | 50.03712 | 8.53855 | 348 ft | 18 kts | 250° |
| 2026-04-15 15:04 | 50.03655 | 8.53620 | 347 ft | 27 kts | 248° |
| 2026-04-15 15:05 | 50.03589 | 8.53355 | 337 ft | 26 kts | 249° |
| 2026-04-15 15:05 | 50.03528 | 8.53100 | 334 ft | 25 kts | 250° |
| 2026-04-15 15:05 | 50.03466 | 8.52854 | 332 ft | 24 kts | 246° |
| 2026-04-15 15:05 | 50.03417 | 8.52665 | 332 ft | 12 kts | 246° |
| 2026-04-15 15:06 | 50.03286 | 8.52593 | 334 ft | 16 kts | 178° |
| 2026-04-15 15:06 | 50.02957 | 8.52598 | 335 ft | 81 kts | 179° |
| 2026-04-15 15:06 | 50.02190 | 8.52606 | 332 ft | 137 kts | 180° |
| 2026-04-15 15:07 | 50.01068 | 8.52619 | 349 ft | 180 kts | 179° |
| 2026-04-15 15:07 | 49.99790 | 8.52636 | 858 ft | 183 kts | 179° |
| 2026-04-15 15:07 | 49.98513 | 8.52684 | 1566 ft | 183 kts | 179° |
| 2026-04-15 15:07 | 49.97255 | 8.52749 | 2075 ft | 183 kts | 177° |
| 2026-04-15 15:08 | 49.95930 | 8.52848 | 2078 ft | 211 kts | 177° |
| 2026-04-15 15:08 | 49.94377 | 8.52817 | 2213 ft | 233 kts | 180° |
| 2026-04-15 15:08 | 49.93099 | 8.52862 | 2724 ft | 230 kts | 177° |
| 2026-04-15 15:08 | 49.91529 | 8.53013 | 3410 ft | 228 kts | 175° |
| 2026-04-15 15:09 | 49.89963 | 8.53188 | 3873 ft | 231 kts | 175° |
| 2026-04-15 15:09 | 49.88360 | 8.53356 | 3977 ft | 230 kts | 176° |
| 2026-04-15 15:09 | 49.86794 | 8.53502 | 3995 ft | 229 kts | 176° |
| 2026-04-15 15:09 | 49.85208 | 8.53635 | 3997 ft | 229 kts | 177° |
| 2026-04-15 15:10 | 49.83612 | 8.53759 | 4001 ft | 229 kts | 177° |
| 2026-04-15 15:10 | 49.82010 | 8.53878 | 4176 ft | 233 kts | 177° |
| 2026-04-15 15:10 | 49.80399 | 8.53999 | 4848 ft | 231 kts | 177° |
| 2026-04-15 15:10 | 49.78786 | 8.54112 | 5443 ft | 233 kts | 178° |
| 2026-04-15 15:11 | 49.77150 | 8.54034 | 5888 ft | 243 kts | 185° |
| 2026-04-15 15:11 | 49.75392 | 8.53801 | 6098 ft | 262 kts | 185° |
| 2026-04-15 15:11 | 49.73550 | 8.53549 | 6638 ft | 268 kts | 185° |
| 2026-04-15 15:11 | 49.71687 | 8.53293 | 7218 ft | 271 kts | 185° |
| 2026-04-15 15:12 | 49.69799 | 8.53039 | 7806 ft | 273 kts | 186° |
| 2026-04-15 15:12 | 49.67892 | 8.52787 | 8387 ft | 276 kts | 186° |
| 2026-04-15 15:12 | 49.65966 | 8.52535 | 8973 ft | 279 kts | 186° |
| 2026-04-15 15:12 | 49.64019 | 8.52280 | 9538 ft | 283 kts | 186° |
| 2026-04-15 15:13 | 49.62054 | 8.52023 | 10109 ft | 285 kts | 186° |
| 2026-04-15 15:13 | 49.60044 | 8.51755 | 10427 ft | 297 kts | 186° |
| 2026-04-15 15:13 | 49.57922 | 8.51469 | 10570 ft | 315 kts | 186° |
| 2026-04-15 15:13 | 49.55678 | 8.51169 | 10686 ft | 332 kts | 186° |
| 2026-04-15 15:14 | 49.53317 | 8.50855 | 10814 ft | 348 kts | 186° |
| 2026-04-15 15:14 | 49.50872 | 8.50535 | 11167 ft | 356 kts | 186° |
| 2026-04-15 15:14 | 49.48395 | 8.50214 | 11675 ft | 359 kts | 186° |
| 2026-04-15 15:14 | 49.45897 | 8.49888 | 12203 ft | 362 kts | 186° |
| 2026-04-15 15:15 | 49.43379 | 8.49560 | 12730 ft | 364 kts | 186° |
| 2026-04-15 15:15 | 49.40843 | 8.49230 | 13240 ft | 368 kts | 186° |
| 2026-04-15 15:15 | 49.38251 | 8.48891 | 13765 ft | 371 kts | 186° |
| 2026-04-15 15:15 | 49.35675 | 8.48552 | 14236 ft | 373 kts | 186° |
| 2026-04-15 15:16 | 49.33108 | 8.48218 | 14684 ft | 376 kts | 186° |
| 2026-04-15 15:16 | 49.30488 | 8.47877 | 15124 ft | 379 kts | 186° |
| 2026-04-15 15:16 | 49.27821 | 8.47529 | 15565 ft | 382 kts | 186° |
| 2026-04-15 15:16 | 49.25162 | 8.47185 | 15999 ft | 384 kts | 186° |
| 2026-04-15 15:17 | 49.22489 | 8.46839 | 16427 ft | 387 kts | 186° |
| 2026-04-15 15:17 | 49.19830 | 8.46496 | 16824 ft | 390 kts | 186° |
| 2026-04-15 15:17 | 49.17116 | 8.46144 | 17228 ft | 393 kts | 186° |
| 2026-04-15 15:17 | 49.14380 | 8.45788 | 17635 ft | 396 kts | 186° |
| 2026-04-15 15:18 | 49.11625 | 8.45428 | 18045 ft | 398 kts | 186° |
| 2026-04-15 15:18 | 49.08852 | 8.45068 | 18444 ft | 401 kts | 186° |
| 2026-04-15 15:18 | 49.06074 | 8.44615 | 18783 ft | 402 kts | 192° |
| 2026-04-15 15:18 | 49.03342 | 8.43695 | 19122 ft | 404 kts | 194° |
| 2026-04-15 15:19 | 49.00590 | 8.42730 | 19467 ft | 406 kts | 194° |
| 2026-04-15 15:19 | 48.97828 | 8.41769 | 19795 ft | 408 kts | 194° |
| 2026-04-15 15:19 | 48.95052 | 8.40805 | 20125 ft | 411 kts | 194° |
| 2026-04-15 15:19 | 48.92257 | 8.39836 | 20451 ft | 413 kts | 194° |
| 2026-04-15 15:20 | 48.89446 | 8.38861 | 20793 ft | 415 kts | 194° |
| 2026-04-15 15:20 | 48.86621 | 8.37880 | 21125 ft | 417 kts | 194° |
| 2026-04-15 15:20 | 48.83781 | 8.36897 | 21453 ft | 420 kts | 194° |
| 2026-04-15 15:20 | 48.80930 | 8.35913 | 21780 ft | 422 kts | 194° |
| 2026-04-15 15:21 | 48.78059 | 8.34921 | 22109 ft | 424 kts | 194° |
| 2026-04-15 15:21 | 48.75178 | 8.33898 | 22404 ft | 427 kts | 195° |
| 2026-04-15 15:21 | 48.72278 | 8.32837 | 22700 ft | 429 kts | 195° |
| 2026-04-15 15:21 | 48.70578 | 8.32207 | 22888 ft | 431 kts | 195° |
| 2026-04-15 15:22 | 48.69386 | 8.31765 | 23017 ft | 431 kts | 195° |
| 2026-04-15 15:22 | 48.66461 | 8.30681 | 23331 ft | 434 kts | 195° |
| 2026-04-15 15:22 | 48.63520 | 8.29598 | 23646 ft | 436 kts | 195° |
| 2026-04-15 15:22 | 48.60565 | 8.28518 | 23911 ft | 438 kts | 195° |
| 2026-04-15 15:23 | 48.57596 | 8.27439 | 24158 ft | 440 kts | 195° |
| 2026-04-15 15:23 | 48.54609 | 8.26357 | 24409 ft | 442 kts | 195° |
| 2026-04-15 15:23 | 48.51611 | 8.25276 | 24655 ft | 444 kts | 195° |
| 2026-04-15 15:23 | 48.48604 | 8.24190 | 24903 ft | 446 kts | 195° |
| 2026-04-15 15:24 | 48.45582 | 8.23092 | 25143 ft | 448 kts | 195° |
| 2026-04-15 15:24 | 48.42548 | 8.21983 | 25389 ft | 450 kts | 195° |
| 2026-04-15 15:24 | 48.39499 | 8.20865 | 25644 ft | 451 kts | 195° |
| 2026-04-15 15:24 | 48.36442 | 8.19746 | 25864 ft | 453 kts | 195° |
| 2026-04-15 15:25 | 48.33373 | 8.18625 | 26070 ft | 456 kts | 195° |
| 2026-04-15 15:25 | 48.30282 | 8.17499 | 26288 ft | 458 kts | 195° |
| 2026-04-15 15:25 | 48.27184 | 8.16374 | 26515 ft | 460 kts | 195° |
| 2026-04-15 15:25 | 48.24126 | 8.14960 | 26719 ft | 459 kts | 204° |
| 2026-04-15 15:26 | 48.21234 | 8.12943 | 26944 ft | 460 kts | 208° |
| 2026-04-15 15:26 | 48.18366 | 8.10805 | 27149 ft | 461 kts | 208° |
| 2026-04-15 15:26 | 48.15484 | 8.08666 | 27374 ft | 463 kts | 208° |
| 2026-04-15 15:26 | 48.12585 | 8.06523 | 27562 ft | 465 kts | 208° |
| 2026-04-15 15:27 | 48.09675 | 8.04380 | 27764 ft | 467 kts | 208° |
| 2026-04-15 15:27 | 48.06759 | 8.02237 | 27974 ft | 469 kts | 208° |
| 2026-04-15 15:27 | 48.03824 | 8.00080 | 28177 ft | 470 kts | 208° |
| 2026-04-15 15:27 | 48.00889 | 7.97922 | 28409 ft | 471 kts | 208° |
| 2026-04-15 15:28 | 47.97944 | 7.95760 | 28703 ft | 470 kts | 208° |
| 2026-04-15 15:28 | 47.95007 | 7.93604 | 28989 ft | 470 kts | 208° |
| 2026-04-15 15:28 | 47.92075 | 7.91453 | 29171 ft | 471 kts | 208° |
| 2026-04-15 15:28 | 47.89162 | 7.89324 | 29219 ft | 463 kts | 208° |
| 2026-04-15 15:29 | 47.83399 | 7.85122 | 29209 ft | 460 kts | 208° |
| 2026-04-15 15:29 | 47.77659 | 7.80945 | 29213 ft | 459 kts | 208° |
| 2026-04-15 15:30 | 47.72887 | 7.77481 | 29219 ft | 460 kts | 208° |
| 2026-04-15 15:30 | 47.67136 | 7.73312 | 29218 ft | 461 kts | 208° |
| 2026-04-15 15:31 | 47.61375 | 7.69147 | 29216 ft | 460 kts | 208° |
| 2026-04-15 15:31 | 47.55616 | 7.64998 | 29221 ft | 460 kts | 208° |
| 2026-04-15 15:32 | 47.49856 | 7.60849 | 29208 ft | 461 kts | 208° |
| 2026-04-15 15:32 | 47.44080 | 7.56702 | 29200 ft | 461 kts | 208° |
| 2026-04-15 15:33 | 47.38300 | 7.52570 | 29204 ft | 462 kts | 208° |
| 2026-04-15 15:33 | 47.32519 | 7.48447 | 29203 ft | 462 kts | 208° |
| 2026-04-15 15:34 | 47.26743 | 7.44329 | 29204 ft | 461 kts | 208° |
| 2026-04-15 15:34 | 47.20969 | 7.40215 | 29207 ft | 461 kts | 208° |
| 2026-04-15 15:35 | 47.15700 | 7.35025 | 29208 ft | 455 kts | 226° |
| 2026-04-15 15:35 | 47.11616 | 7.28016 | 29207 ft | 451 kts | 234° |
| 2026-04-15 15:36 | 47.07701 | 7.20801 | 29192 ft | 452 kts | 234° |
| 2026-04-15 15:36 | 47.03762 | 7.13605 | 29197 ft | 452 kts | 234° |
| 2026-04-15 15:37 | 46.99851 | 7.06462 | 29192 ft | 452 kts | 234° |
| 2026-04-15 15:37 | 46.95922 | 6.99274 | 29174 ft | 452 kts | 234° |
| 2026-04-15 15:38 | 46.91981 | 6.92095 | 29179 ft | 452 kts | 233° |
| 2026-04-15 15:38 | 46.88041 | 6.84939 | 29194 ft | 452 kts | 233° |
| 2026-04-15 15:39 | 46.84098 | 6.77809 | 29192 ft | 451 kts | 233° |
| 2026-04-15 15:39 | 46.80146 | 6.70690 | 29203 ft | 451 kts | 233° |
| 2026-04-15 15:40 | 46.76197 | 6.63579 | 29190 ft | 451 kts | 233° |
| 2026-04-15 15:40 | 46.72245 | 6.56475 | 29188 ft | 451 kts | 233° |
| 2026-04-15 15:41 | 46.68285 | 6.49382 | 29182 ft | 451 kts | 233° |
| 2026-04-15 15:41 | 46.64319 | 6.42314 | 29203 ft | 451 kts | 233° |
| 2026-04-15 15:42 | 46.60349 | 6.35262 | 29206 ft | 450 kts | 233° |
| 2026-04-15 15:42 | 46.56386 | 6.28229 | 29207 ft | 450 kts | 233° |
| 2026-04-15 15:43 | 46.52418 | 6.21208 | 29206 ft | 449 kts | 233° |
| 2026-04-15 15:43 | 46.48450 | 6.14198 | 29204 ft | 449 kts | 233° |
| 2026-04-15 15:44 | 46.44490 | 6.07192 | 29200 ft | 449 kts | 233° |
| 2026-04-15 15:44 | 46.40525 | 6.00211 | 29195 ft | 448 kts | 233° |
| 2026-04-15 15:45 | 46.36555 | 5.93260 | 29205 ft | 447 kts | 232° |
| 2026-04-15 15:45 | 46.32595 | 5.86343 | 29203 ft | 446 kts | 232° |
| 2026-04-15 15:46 | 46.28639 | 5.79445 | 29197 ft | 445 kts | 232° |
| 2026-04-15 15:46 | 46.24686 | 5.72558 | 29190 ft | 445 kts | 232° |
| 2026-04-15 15:47 | 46.20724 | 5.65684 | 29186 ft | 445 kts | 232° |
| 2026-04-15 15:47 | 46.16789 | 5.58862 | 29181 ft | 446 kts | 232° |
| 2026-04-15 15:48 | 46.13041 | 5.51777 | 29193 ft | 443 kts | 237° |
| 2026-04-15 15:48 | 46.09540 | 5.44470 | 29198 ft | 442 kts | 237° |
| 2026-04-15 15:49 | 46.06046 | 5.37200 | 29194 ft | 442 kts | 237° |
| 2026-04-15 15:49 | 46.02543 | 5.29924 | 29186 ft | 442 kts | 237° |
| 2026-04-15 15:50 | 45.99037 | 5.22675 | 29185 ft | 442 kts | 237° |
| 2026-04-15 15:50 | 45.95525 | 5.15425 | 29183 ft | 442 kts | 237° |
| 2026-04-15 15:51 | 45.92012 | 5.08195 | 29198 ft | 441 kts | 237° |
| 2026-04-15 15:51 | 45.88504 | 5.00993 | 29201 ft | 439 kts | 237° |
| 2026-04-15 15:52 | 45.85006 | 4.93816 | 29192 ft | 439 kts | 237° |
| 2026-04-15 15:52 | 45.81504 | 4.86650 | 29189 ft | 439 kts | 237° |
| 2026-04-15 15:53 | 45.77996 | 4.79490 | 29183 ft | 439 kts | 237° |
| 2026-04-15 15:53 | 45.74483 | 4.72345 | 29180 ft | 439 kts | 237° |
| 2026-04-15 15:54 | 45.70961 | 4.65216 | 29192 ft | 437 kts | 237° |
| 2026-04-15 15:54 | 45.67457 | 4.58127 | 29199 ft | 436 kts | 237° |
| 2026-04-15 15:55 | 45.63960 | 4.51064 | 29199 ft | 435 kts | 237° |
| 2026-04-15 15:55 | 45.60464 | 4.44017 | 29196 ft | 435 kts | 237° |
| 2026-04-15 15:56 | 45.56966 | 4.36975 | 29192 ft | 434 kts | 237° |
| 2026-04-15 15:56 | 45.53464 | 4.29955 | 29188 ft | 434 kts | 236° |
| 2026-04-15 15:57 | 45.49961 | 4.22952 | 29195 ft | 433 kts | 237° |
| 2026-04-15 15:57 | 45.46467 | 4.15986 | 29194 ft | 432 kts | 237° |
| 2026-04-15 15:58 | 45.42967 | 4.09037 | 29189 ft | 431 kts | 237° |
| 2026-04-15 15:58 | 45.39500 | 4.02166 | 29187 ft | 431 kts | 237° |
| 2026-04-15 15:59 | 45.36003 | 3.95253 | 29179 ft | 430 kts | 236° |
| 2026-04-15 15:59 | 45.32504 | 3.88352 | 29176 ft | 430 kts | 236° |
| 2026-04-15 16:00 | 45.29003 | 3.81463 | 29171 ft | 430 kts | 236° |
| 2026-04-15 16:00 | 45.25502 | 3.74585 | 29166 ft | 429 kts | 237° |
| 2026-04-15 16:01 | 45.22063 | 3.67671 | 29166 ft | 429 kts | 237° |
| 2026-04-15 16:01 | 45.18673 | 3.60723 | 29164 ft | 428 kts | 237° |
| 2026-04-15 16:02 | 45.15274 | 3.53797 | 29161 ft | 428 kts | 237° |
| 2026-04-15 16:02 | 45.11856 | 3.46880 | 29149 ft | 428 kts | 237° |
| 2026-04-15 16:03 | 45.08427 | 3.39987 | 29146 ft | 429 kts | 237° |
| 2026-04-15 16:03 | 45.04986 | 3.33084 | 29150 ft | 429 kts | 237° |
| 2026-04-15 16:04 | 45.01544 | 3.26186 | 29152 ft | 429 kts | 237° |
| 2026-04-15 16:04 | 44.98097 | 3.19302 | 29154 ft | 429 kts | 237° |
| 2026-04-15 16:05 | 44.94647 | 3.12415 | 29147 ft | 429 kts | 237° |
| 2026-04-15 16:05 | 44.91192 | 3.05538 | 29147 ft | 430 kts | 237° |
| 2026-04-15 16:06 | 44.87734 | 2.98661 | 29159 ft | 429 kts | 237° |
| 2026-04-15 16:06 | 44.84281 | 2.91811 | 29158 ft | 428 kts | 237° |
| 2026-04-15 16:07 | 44.81000 | 2.84829 | 29161 ft | 427 kts | 239° |
| 2026-04-15 16:08 | 44.76234 | 2.74245 | 29166 ft | 426 kts | 239° |
| 2026-04-15 16:08 | 44.73036 | 2.67286 | 29166 ft | 426 kts | 239° |
| 2026-04-15 16:09 | 44.69789 | 2.60313 | 29180 ft | 425 kts | 239° |
| 2026-04-15 16:09 | 44.66557 | 2.53375 | 29189 ft | 424 kts | 239° |
| 2026-04-15 16:10 | 44.63326 | 2.46438 | 29201 ft | 424 kts | 239° |
| 2026-04-15 16:10 | 44.60098 | 2.39521 | 29200 ft | 423 kts | 238° |
| 2026-04-15 16:11 | 44.56862 | 2.32619 | 29192 ft | 424 kts | 239° |
| 2026-04-15 16:11 | 44.53620 | 2.25721 | 29198 ft | 423 kts | 238° |
| 2026-04-15 16:12 | 44.50381 | 2.18842 | 29199 ft | 422 kts | 238° |
| 2026-04-15 16:12 | 44.47150 | 2.11984 | 29204 ft | 422 kts | 238° |
| 2026-04-15 16:13 | 44.43913 | 2.05131 | 29195 ft | 421 kts | 238° |
| 2026-04-15 16:13 | 44.40676 | 1.98299 | 29187 ft | 421 kts | 238° |
| 2026-04-15 16:14 | 44.37438 | 1.91469 | 29176 ft | 422 kts | 238° |
| 2026-04-15 16:14 | 44.34194 | 1.84649 | 29196 ft | 421 kts | 238° |
| 2026-04-15 16:15 | 44.30946 | 1.77861 | 29211 ft | 420 kts | 238° |
| 2026-04-15 16:15 | 44.27724 | 1.71076 | 29199 ft | 419 kts | 239° |
| 2026-04-15 16:16 | 44.24593 | 1.64222 | 29204 ft | 419 kts | 239° |
| 2026-04-15 16:16 | 44.22004 | 1.58531 | 29198 ft | 418 kts | 239° |
| 2026-04-15 16:17 | 44.18874 | 1.51696 | 29207 ft | 418 kts | 239° |
| 2026-04-15 16:17 | 44.15729 | 1.44882 | 29221 ft | 417 kts | 239° |
| 2026-04-15 16:18 | 44.12579 | 1.38104 | 29219 ft | 417 kts | 239° |
| 2026-04-15 16:18 | 44.09430 | 1.31334 | 29217 ft | 416 kts | 239° |
| 2026-04-15 16:19 | 44.06288 | 1.24578 | 29199 ft | 416 kts | 239° |
| 2026-04-15 16:19 | 44.03145 | 1.17842 | 29204 ft | 416 kts | 239° |
| 2026-04-15 16:20 | 43.99998 | 1.11111 | 29207 ft | 415 kts | 239° |
| 2026-04-15 16:20 | 43.96847 | 1.04386 | 29212 ft | 415 kts | 239° |
| 2026-04-15 16:21 | 43.93696 | 0.97685 | 29212 ft | 414 kts | 239° |
| 2026-04-15 16:21 | 43.90546 | 0.90990 | 29209 ft | 414 kts | 239° |
| 2026-04-15 16:22 | 43.87080 | 0.84601 | 29207 ft | 416 kts | 231° |
| 2026-04-15 16:22 | 43.83214 | 0.78625 | 29199 ft | 417 kts | 231° |
| 2026-04-15 16:23 | 43.79337 | 0.72656 | 29206 ft | 417 kts | 231° |
| 2026-04-15 16:23 | 43.75471 | 0.66695 | 29213 ft | 416 kts | 231° |
| 2026-04-15 16:24 | 43.71604 | 0.60744 | 29211 ft | 415 kts | 231° |
| 2026-04-15 16:24 | 43.67745 | 0.54817 | 29209 ft | 415 kts | 231° |
| 2026-04-15 16:25 | 43.63906 | 0.48936 | 29208 ft | 415 kts | 231° |
| 2026-04-15 16:25 | 43.60037 | 0.43013 | 29189 ft | 415 kts | 231° |
| 2026-04-15 16:26 | 43.56173 | 0.37102 | 29202 ft | 415 kts | 231° |
| 2026-04-15 16:26 | 43.52297 | 0.31206 | 29209 ft | 414 kts | 231° |
| 2026-04-15 16:27 | 43.48423 | 0.25324 | 29211 ft | 414 kts | 231° |
| 2026-04-15 16:27 | 43.44557 | 0.19462 | 29208 ft | 414 kts | 231° |
| 2026-04-15 16:28 | 43.40686 | 0.13599 | 29193 ft | 414 kts | 231° |
| 2026-04-15 16:28 | 43.36807 | 0.07733 | 29196 ft | 414 kts | 231° |
| 2026-04-15 16:29 | 43.32923 | 0.01880 | 29197 ft | 414 kts | 231° |
| 2026-04-15 16:29 | 43.29036 | -0.03959 | 29196 ft | 415 kts | 231° |
| 2026-04-15 16:30 | 43.25141 | -0.09802 | 29201 ft | 414 kts | 231° |
| 2026-04-15 16:30 | 43.21251 | -0.15628 | 29193 ft | 414 kts | 231° |
| 2026-04-15 16:31 | 43.17365 | -0.21437 | 29203 ft | 414 kts | 231° |
| 2026-04-15 16:31 | 43.13470 | -0.27252 | 29207 ft | 414 kts | 231° |
| 2026-04-15 16:32 | 43.09568 | -0.33060 | 29208 ft | 415 kts | 231° |
| 2026-04-15 16:32 | 43.05655 | -0.38860 | 29214 ft | 415 kts | 231° |
| 2026-04-15 16:33 | 43.01743 | -0.44655 | 29196 ft | 415 kts | 230° |
| 2026-04-15 16:33 | 42.97831 | -0.50457 | 29185 ft | 415 kts | 231° |
| 2026-04-15 16:34 | 42.93911 | -0.56253 | 29191 ft | 416 kts | 231° |
| 2026-04-15 16:34 | 42.90020 | -0.62061 | 29184 ft | 414 kts | 235° |
| 2026-04-15 16:35 | 42.87285 | -0.68795 | 29184 ft | 407 kts | 253° |
| 2026-04-15 16:35 | 42.86119 | -0.76309 | 29184 ft | 405 kts | 261° |
| 2026-04-15 16:36 | 42.85125 | -0.83869 | 29176 ft | 405 kts | 261° |